Time;durP1;ratioP1;P1;durP2;ratioP2;P2;SDS_P1;SDS_P2;PMS_P1;PMS_P2;Temp;Humidity;BMP_temperature;BMP_pressure;BME280_temperature;BME280_humidity;BME280_pressure;Samples;Min_cycle;Max_cycle;Signal;HPM_P1;HPM_P2
2023/12/12 00:02:15;;;;;;;7.22;2.90;;;5.60;68.70;;;;;;4968447;28;115599;-82
2023/12/12 00:04:43;;;;;;;7.57;2.65;;;5.60;68.70;;;;;;4968274;28;115527;-83
2023/12/12 00:07:10;;;;;;;8.10;2.97;;;5.60;68.70;;;;;;4974645;28;114938;-82
2023/12/12 00:09:38;;;;;;;7.80;2.70;;;5.60;68.60;;;;;;4958308;28;114844;-82
2023/12/12 00:12:05;;;;;;;8.52;3.30;;;5.60;68.70;;;;;;4969324;28;115281;-81
2023/12/12 00:14:33;;;;;;;5.78;2.78;;;5.60;68.70;;;;;;4968847;28;114532;-82
2023/12/12 00:17:00;;;;;;;5.75;2.78;;;5.50;68.70;;;;;;4967859;28;114352;-82
2023/12/12 00:19:30;;;;;;;7.15;3.00;;;5.60;68.80;;;;;;4969770;28;114223;-83
2023/12/12 00:21:57;;;;;;;5.72;2.88;;;5.50;68.80;;;;;;4980601;28;114289;-81
2023/12/12 00:24:25;;;;;;;7.70;3.55;;;5.50;68.80;;;;;;4968900;28;114635;-81
2023/12/12 00:26:53;;;;;;;6.95;3.05;;;5.40;68.80;;;;;;4969429;28;114260;-82
2023/12/12 00:29:20;;;;;;;7.75;3.00;;;5.40;68.80;;;;;;4969473;28;114336;-82
2023/12/12 00:31:47;;;;;;;8.32;2.90;;;5.40;68.90;;;;;;4968311;28;115574;-82
2023/12/12 00:34:15;;;;;;;6.88;2.63;;;5.40;69.00;;;;;;4968652;28;114659;-83
2023/12/12 00:36:42;;;;;;;6.55;2.90;;;5.40;69.00;;;;;;4969161;28;114269;-82
2023/12/12 00:39:09;;;;;;;8.88;2.83;;;5.40;68.90;;;;;;4969252;28;114324;-82
2023/12/12 00:41:37;;;;;;;5.43;2.60;;;5.40;68.90;;;;;;4967403;28;115090;-81
2023/12/12 00:44:04;;;;;;;7.50;2.50;;;5.40;68.90;;;;;;4966691;28;114941;-82
2023/12/12 00:46:32;;;;;;;7.50;2.70;;;5.40;68.90;;;;;;4950461;28;114411;-82
2023/12/12 00:48:59;;;;;;;5.00;2.45;;;5.40;68.90;;;;;;4951584;28;114321;-82
2023/12/12 00:51:26;;;;;;;6.18;2.30;;;5.40;68.90;;;;;;4966713;28;115191;-82
2023/12/12 00:53:57;;;;;;;5.75;2.72;;;5.40;68.90;;;;;;4966659;28;114651;-82
2023/12/12 00:56:26;;;;;;;4.78;2.42;;;5.40;68.80;;;;;;4967023;28;114616;-82
2023/12/12 00:58:53;;;;;;;7.50;2.30;;;5.50;68.80;;;;;;4969008;28;114205;-82
2023/12/12 01:01:21;;;;;;;5.65;2.92;;;5.40;68.70;;;;;;4966449;28;114814;-82
2023/12/12 01:03:48;;;;;;;7.35;2.50;;;5.50;68.60;;;;;;4966302;28;114675;-82
2023/12/12 01:06:25;;;;;;;5.50;2.53;;;5.50;68.70;;;;;;4967110;28;115035;-82
2023/12/12 01:08:55;;;;;;;6.45;2.50;;;5.50;68.70;;;;;;4967443;28;114594;-83
2023/12/12 01:11:24;;;;;;;5.13;2.45;;;5.40;68.70;;;;;;4966439;28;115320;-83
2023/12/12 01:13:53;;;;;;;5.80;2.47;;;5.30;68.70;;;;;;4965925;28;115998;-83
2023/12/12 01:16:20;;;;;;;10.75;2.67;;;5.40;68.70;;;;;;4967088;28;114491;-80
2023/12/12 01:18:48;;;;;;;6.95;2.50;;;5.40;68.70;;;;;;4967058;28;114240;-82
2023/12/12 01:21:16;;;;;;;5.95;2.55;;;5.40;68.80;;;;;;4982404;28;115086;-82
2023/12/12 01:23:51;;;;;;;4.88;2.13;;;5.40;68.70;;;;;;4966324;28;114584;-82
2023/12/12 01:26:19;;;;;;;7.47;2.38;;;5.40;68.60;;;;;;4983270;28;114286;-82
2023/12/12 01:28:47;;;;;;;4.88;2.13;;;5.30;68.70;;;;;;4966938;28;114451;-83
2023/12/12 01:31:15;;;;;;;4.85;2.17;;;5.40;68.60;;;;;;4965031;28;115190;-81
2023/12/12 01:33:43;;;;;;;7.32;2.75;;;5.30;68.70;;;;;;4965833;28;115692;-81
2023/12/12 01:36:10;;;;;;;5.63;1.80;;;5.30;68.60;;;;;;4966623;28;114308;-82
2023/12/12 01:38:38;;;;;;;5.65;2.40;;;5.30;68.70;;;;;;4967921;28;114572;-81
2023/12/12 01:41:05;;;;;;;3.78;1.88;;;5.30;68.70;;;;;;4949295;28;118521;-81
2023/12/12 01:43:33;;;;;;;6.65;2.35;;;5.30;68.70;;;;;;4966807;28;114609;-82
2023/12/12 01:46:04;;;;;;;5.82;2.10;;;5.30;68.70;;;;;;4967712;28;114217;-82
2023/12/12 01:48:32;;;;;;;6.72;2.30;;;5.30;68.70;;;;;;4968066;28;114610;-81
2023/12/12 01:51:00;;;;;;;5.38;2.28;;;5.30;68.70;;;;;;4969300;28;115023;-81
2023/12/12 01:53:36;;;;;;;5.63;2.25;;;5.30;68.80;;;;;;4974835;28;114631;-82
2023/12/12 01:56:04;;;;;;;4.82;2.15;;;5.30;68.90;;;;;;4966596;28;114377;-82
2023/12/12 01:58:31;;;;;;;7.30;2.38;;;5.30;68.90;;;;;;4966553;28;114749;-82
2023/12/12 02:00:58;;;;;;;5.00;2.70;;;5.30;68.90;;;;;;4949690;28;117955;-82
2023/12/12 02:03:26;;;;;;;4.97;2.30;;;5.30;68.90;;;;;;4949780;28;114792;-82
2023/12/12 02:05:57;;;;;;;6.78;2.47;;;5.40;68.90;;;;;;4966833;28;114449;-82
2023/12/12 02:08:25;;;;;;;4.95;1.80;;;5.30;68.90;;;;;;4966766;28;114839;-83
2023/12/12 02:10:53;;;;;;;4.75;2.30;;;5.40;68.90;;;;;;4978126;28;115063;-80
2023/12/12 02:13:22;;;;;;;6.47;2.28;;;5.40;68.90;;;;;;4989388;28;113995;-81
2023/12/12 02:15:49;;;;;;;6.47;3.00;;;5.40;68.90;;;;;;4962039;28;114288;-81
2023/12/12 02:18:16;;;;;;;5.18;2.08;;;5.40;69.00;;;;;;4966643;28;114437;-81
2023/12/12 02:20:44;;;;;;;6.68;2.40;;;5.40;69.00;;;;;;4949317;28;117304;-82
2023/12/12 02:23:11;;;;;;;5.13;2.10;;;5.50;69.00;;;;;;4966746;28;114647;-81
2023/12/12 02:25:39;;;;;;;5.38;2.30;;;5.50;69.00;;;;;;4967298;28;114240;-82
2023/12/12 02:28:10;;;;;;;5.22;2.13;;;5.50;69.10;;;;;;4966324;28;114366;-82
2023/12/12 02:30:37;;;;;;;6.20;2.20;;;5.40;69.00;;;;;;4981721;28;116844;-82
2023/12/12 02:33:04;;;;;;;5.65;2.47;;;5.40;69.00;;;;;;4964820;28;114789;-82
2023/12/12 02:35:32;;;;;;;6.22;1.90;;;5.50;69.00;;;;;;4967374;28;114313;-82
2023/12/12 02:38:00;;;;;;;4.68;1.73;;;5.40;68.90;;;;;;4966394;28;114534;-82
2023/12/12 02:40:27;;;;;;;4.75;1.92;;;5.50;68.90;;;;;;4966176;28;115147;-82
2023/12/12 02:42:54;;;;;;;4.10;1.63;;;5.50;68.90;;;;;;4964926;28;114722;-82
2023/12/12 02:45:22;;;;;;;4.95;1.83;;;5.40;68.90;;;;;;4957420;28;114616;-82
2023/12/12 02:47:49;;;;;;;4.82;1.80;;;5.40;68.90;;;;;;4947474;28;114172;-82
2023/12/12 02:50:18;;;;;;;5.75;1.70;;;5.40;68.90;;;;;;4946517;28;115711;-82
2023/12/12 02:52:48;;;;;;;4.80;1.90;;;5.40;68.90;;;;;;4946147;28;115944;-83
2023/12/12 02:55:15;;;;;;;4.65;1.70;;;5.50;68.90;;;;;;4947209;28;114281;-82
2023/12/12 02:57:45;;;;;;;4.35;1.80;;;5.50;68.80;;;;;;4947341;28;114239;-82
2023/12/12 03:00:13;;;;;;;8.40;2.15;;;5.50;68.70;;;;;;4912950;28;115201;-82
2023/12/12 03:02:41;;;;;;;5.97;2.42;;;5.40;68.70;;;;;;4946816;28;114605;-82
2023/12/12 03:05:08;;;;;;;5.95;2.10;;;5.50;68.70;;;;;;4945504;28;114468;-82
2023/12/12 03:07:37;;;;;;;4.72;2.03;;;5.50;68.60;;;;;;4945976;28;114515;-82
2023/12/12 03:10:05;;;;;;;3.83;1.55;;;5.50;68.60;;;;;;4944927;28;115617;-82
2023/12/12 03:12:33;;;;;;;5.28;2.28;;;5.50;68.50;;;;;;4928943;28;115069;-82
2023/12/12 03:15:00;;;;;;;4.60;1.73;;;5.50;68.40;;;;;;4947169;28;114465;-83
2023/12/12 03:17:27;;;;;;;3.13;1.70;;;5.50;68.40;;;;;;4946021;28;114395;-82
2023/12/12 03:19:55;;;;;;;4.93;2.20;;;5.50;68.40;;;;;;4945891;28;116327;-82
2023/12/12 03:22:23;;;;;;;7.97;1.88;;;5.50;68.30;;;;;;4944706;28;115895;-82
2023/12/12 03:24:50;;;;;;;4.97;1.70;;;5.60;68.40;;;;;;4945672;28;114552;-82
2023/12/12 03:27:18;;;;;;;7.28;2.03;;;5.50;68.30;;;;;;4945998;28;114370;-82
2023/12/12 03:29:45;;;;;;;7.88;2.13;;;5.50;68.30;;;;;;4945756;28;116257;-82
2023/12/12 03:32:12;;;;;;;6.47;1.98;;;5.60;68.30;;;;;;4928552;28;115172;-82
2023/12/12 03:34:40;;;;;;;4.72;2.17;;;5.60;68.30;;;;;;4954229;28;114540;-82
2023/12/12 03:37:07;;;;;;;6.97;2.25;;;5.60;68.20;;;;;;4951271;28;114483;-82
2023/12/12 03:39:37;;;;;;;5.80;2.30;;;5.60;68.30;;;;;;4944658;28;116568;-82
2023/12/12 03:42:04;;;;;;;5.78;1.90;;;5.60;68.20;;;;;;4944722;28;114724;-82
2023/12/12 03:44:32;;;;;;;7.82;2.20;;;5.60;68.20;;;;;;4946523;28;115170;-81
2023/12/12 03:47:00;;;;;;;6.57;2.10;;;5.60;68.20;;;;;;4946620;28;114481;-81
2023/12/12 03:49:28;;;;;;;4.82;1.83;;;5.60;68.20;;;;;;4928157;28;116780;-81
2023/12/12 03:51:55;;;;;;;5.13;1.88;;;5.60;68.20;;;;;;4944769;28;115260;-82
2023/12/12 03:54:22;;;;;;;5.57;2.00;;;5.50;68.20;;;;;;4945315;28;114531;-81
2023/12/12 03:56:51;;;;;;;3.25;1.60;;;5.50;68.20;;;;;;4945457;28;114470;-82
2023/12/12 03:59:18;;;;;;;5.45;1.90;;;5.60;68.20;;;;;;4945394;28;115049;-82
2023/12/12 04:01:48;;;;;;;6.28;1.90;;;5.50;68.20;;;;;;4945754;28;114809;-81
2023/12/12 04:04:17;;;;;;;3.17;1.60;;;5.60;68.20;;;;;;4942426;28;114521;-81
2023/12/12 04:06:46;;;;;;;5.57;2.08;;;5.50;68.20;;;;;;4953217;28;114227;-80
2023/12/12 04:09:13;;;;;;;6.88;2.47;;;5.50;68.10;;;;;;4913126;28;117971;-81
2023/12/12 04:11:41;;;;;;;4.60;1.67;;;5.50;68.20;;;;;;4928209;28;114633;-81
2023/12/12 04:14:08;;;;;;;6.35;1.60;;;5.50;68.20;;;;;;4945035;28;114633;-82
2023/12/12 04:16:36;;;;;;;6.45;2.13;;;5.50;68.20;;;;;;4945452;28;114564;-82
2023/12/12 04:19:03;;;;;;;7.25;2.08;;;5.50;68.30;;;;;;4912244;28;115218;-82
2023/12/12 04:21:31;;;;;;;5.32;1.80;;;5.50;68.30;;;;;;4914151;28;114761;-81
2023/12/12 04:23:58;;;;;;;5.82;1.75;;;5.50;68.30;;;;;;4931957;28;114516;-81
2023/12/12 04:26:30;;;;;;;6.38;2.05;;;5.50;68.40;;;;;;4949525;28;114623;-82
2023/12/12 04:28:57;;;;;;;6.32;1.85;;;5.50;68.50;;;;;;4947469;28;117975;-82
2023/12/12 04:31:24;;;;;;;4.15;1.65;;;5.50;68.50;;;;;;4948848;28;114622;-83
2023/12/12 04:33:51;;;;;;;4.57;1.95;;;5.50;68.50;;;;;;4950054;28;114277;-83
2023/12/12 04:36:20;;;;;;;4.28;2.00;;;5.50;68.50;;;;;;4948291;28;114911;-82
2023/12/12 04:38:48;;;;;;;5.10;2.05;;;5.50;68.60;;;;;;4948593;28;115372;-82
2023/12/12 04:41:15;;;;;;;6.85;1.85;;;5.50;68.60;;;;;;4948854;28;114975;-83
2023/12/12 04:43:43;;;;;;;6.43;2.00;;;5.50;68.60;;;;;;4948859;28;114587;-81
2023/12/12 04:46:17;;;;;;;4.70;1.88;;;5.50;68.70;;;;;;4949610;28;114532;-80
2023/12/12 04:48:45;;;;;;;5.60;1.73;;;5.50;68.70;;;;;;4947813;28;115505;-82
2023/12/12 04:51:13;;;;;;;4.22;2.03;;;5.50;68.70;;;;;;4914616;28;117442;-82
2023/12/12 04:53:40;;;;;;;6.88;2.33;;;5.50;68.70;;;;;;4949831;28;114448;-82
2023/12/12 04:56:09;;;;;;;5.97;2.00;;;5.50;68.80;;;;;;4947652;28;114555;-82
2023/12/12 04:58:36;;;;;;;5.75;2.10;;;5.40;68.80;;;;;;4946758;28;115260;-82
2023/12/12 05:01:04;;;;;;;8.13;2.00;;;5.40;68.80;;;;;;4948199;28;115192;-82
2023/12/12 05:03:32;;;;;;;5.88;1.85;;;5.50;68.80;;;;;;4948717;28;114530;-82
2023/12/12 05:06:00;;;;;;;4.28;1.98;;;5.50;68.80;;;;;;4947049;28;114497;-82
2023/12/12 05:08:28;;;;;;;5.50;2.28;;;5.40;68.90;;;;;;4930524;28;115405;-82
2023/12/12 05:10:55;;;;;;;3.75;1.67;;;5.50;68.90;;;;;;4947885;28;114654;-81
2023/12/12 05:13:23;;;;;;;5.05;1.63;;;5.40;68.90;;;;;;4930795;28;114503;-81
2023/12/12 05:15:51;;;;;;;5.82;2.30;;;5.40;68.90;;;;;;4951234;28;114533;-81
2023/12/12 05:18:18;;;;;;;6.35;2.08;;;5.40;68.90;;;;;;4951782;28;114920;-82
2023/12/12 05:20:46;;;;;;;5.50;2.80;;;5.40;68.90;;;;;;4947013;28;114698;-82
2023/12/12 05:23:13;;;;;;;7.28;2.10;;;5.40;69.00;;;;;;4947842;28;114318;-82
2023/12/12 05:25:40;;;;;;;7.30;2.38;;;5.50;68.90;;;;;;4948667;28;114243;-81
2023/12/12 05:28:09;;;;;;;4.38;1.77;;;5.50;68.90;;;;;;4946595;28;115204;-81
2023/12/12 05:30:37;;;;;;;4.00;1.48;;;5.40;68.90;;;;;;4948027;28;114586;-81
2023/12/12 05:33:07;;;;;;;5.68;2.47;;;5.50;68.90;;;;;;4931028;28;114334;-80
2023/12/12 05:35:34;;;;;;;6.03;2.60;;;5.50;68.90;;;;;;4949084;28;114366;-81
2023/12/12 05:38:06;;;;;;;3.25;1.58;;;5.40;68.90;;;;;;4945825;28;117928;-82
2023/12/12 05:40:34;;;;;;;6.40;2.17;;;5.40;68.90;;;;;;4947794;28;114578;-82
2023/12/12 05:43:01;;;;;;;6.55;2.33;;;5.50;68.90;;;;;;4947280;28;114202;-80
2023/12/12 05:45:29;;;;;;;6.60;2.17;;;5.50;68.90;;;;;;4930918;28;114556;-82
2023/12/12 05:47:56;;;;;;;7.40;2.15;;;5.50;68.90;;;;;;4947048;28;116352;-82
2023/12/12 05:50:24;;;;;;;5.03;2.15;;;5.50;68.90;;;;;;4946378;28;115281;-81
2023/12/12 05:52:51;;;;;;;4.78;2.05;;;5.50;68.90;;;;;;4915382;28;114410;-81
2023/12/12 05:55:19;;;;;;;3.42;1.92;;;5.50;68.90;;;;;;4948988;28;114349;-81
2023/12/12 05:57:48;;;;;;;5.05;2.28;;;5.50;68.90;;;;;;4946243;28;115483;-82
2023/12/12 06:00:15;;;;;;;5.15;2.05;;;5.50;68.90;;;;;;4942188;28;114414;-81
2023/12/12 06:02:43;;;;;;;5.28;2.03;;;5.40;68.90;;;;;;4949401;28;114305;-82
2023/12/12 06:05:11;;;;;;;5.95;2.53;;;5.50;68.90;;;;;;4950508;28;114342;-81
2023/12/12 06:07:39;;;;;;;5.53;1.95;;;5.50;68.90;;;;;;4913865;28;115727;-82
2023/12/12 06:10:08;;;;;;;5.68;2.30;;;5.40;68.90;;;;;;4946097;28;114653;-81
2023/12/12 06:12:36;;;;;;;5.13;2.25;;;5.40;68.90;;;;;;4946848;28;114342;-81
2023/12/12 06:15:07;;;;;;;6.57;2.10;;;5.40;68.90;;;;;;4946507;28;115440;-81
2023/12/12 06:17:35;;;;;;;5.55;1.80;;;5.40;68.90;;;;;;4929760;28;115776;-81
2023/12/12 06:20:04;;;;;;;6.30;1.90;;;5.40;68.90;;;;;;4946129;28;114755;-81
2023/12/12 06:22:31;;;;;;;5.55;2.20;;;5.50;68.80;;;;;;4947850;28;114474;-81
2023/12/12 06:24:59;;;;;;;7.63;2.10;;;5.50;68.80;;;;;;4946268;28;114827;-81
2023/12/12 06:27:26;;;;;;;5.05;2.13;;;5.50;68.80;;;;;;4946291;28;115158;-82
2023/12/12 06:29:53;;;;;;;6.03;2.05;;;5.50;68.80;;;;;;4945793;28;115655;-81
2023/12/12 06:32:22;;;;;;;7.03;2.30;;;5.40;68.70;;;;;;4947823;28;114236;-82
2023/12/12 06:34:49;;;;;;;5.20;2.00;;;5.50;68.70;;;;;;4947440;28;114311;-82
2023/12/12 06:37:19;;;;;;;5.95;2.38;;;5.40;68.70;;;;;;4929672;28;115087;-82
2023/12/12 06:39:47;;;;;;;7.78;3.70;;;5.50;68.60;;;;;;4945439;28;115831;-82
2023/12/12 06:42:14;;;;;;;6.25;2.53;;;5.50;68.60;;;;;;4947434;28;114576;-82
2023/12/12 06:44:42;;;;;;;6.00;2.05;;;5.40;68.60;;;;;;4948588;28;114282;-82
2023/12/12 06:47:09;;;;;;;5.63;2.25;;;5.50;68.60;;;;;;4945430;28;116409;-82
2023/12/12 06:49:37;;;;;;;6.47;2.67;;;5.50;68.50;;;;;;4945917;28;115301;-81
2023/12/12 06:52:04;;;;;;;6.57;2.30;;;5.50;68.50;;;;;;4947307;28;114187;-81
2023/12/12 06:54:32;;;;;;;4.88;1.80;;;5.50;68.40;;;;;;4947799;28;114186;-81
2023/12/12 06:56:59;;;;;;;7.38;2.10;;;5.40;68.40;;;;;;4946108;28;114802;-82
2023/12/12 06:59:27;;;;;;;4.45;1.92;;;5.40;68.40;;;;;;4950521;28;114811;-82
2023/12/12 07:01:54;;;;;;;6.15;2.40;;;5.40;68.40;;;;;;4953141;28;114188;-82
2023/12/12 07:04:22;;;;;;;6.82;2.00;;;5.40;68.40;;;;;;4947813;28;114375;-83
2023/12/12 07:06:49;;;;;;;4.75;1.75;;;5.40;68.40;;;;;;4928507;28;119811;-81
2023/12/12 07:09:17;;;;;;;4.15;1.80;;;5.40;68.30;;;;;;4946009;28;114673;-81
2023/12/12 07:11:44;;;;;;;3.78;1.88;;;5.40;68.30;;;;;;4948004;28;114448;-80
2023/12/12 07:14:11;;;;;;;4.82;1.90;;;5.40;68.20;;;;;;4947384;28;114198;-81
2023/12/12 07:16:39;;;;;;;3.67;1.88;;;5.40;68.30;;;;;;4928592;28;115112;-81
2023/12/12 07:19:07;;;;;;;5.05;1.95;;;5.40;68.30;;;;;;4928697;28;115748;-82
2023/12/12 07:21:41;;;;;;;3.22;1.75;;;5.40;68.20;;;;;;4947195;28;114191;-82
2023/12/12 07:24:14;;;;;;;4.45;1.70;;;5.40;68.10;;;;;;4946830;28;114375;-82
2023/12/12 07:26:45;;;;;;;4.13;1.90;;;5.40;68.10;;;;;;4944903;28;115046;-82
2023/12/12 07:29:17;;;;;;;3.08;1.80;;;5.40;68.00;;;;;;4928763;28;116072;-82
2023/12/12 07:31:45;;;;;;;4.53;1.85;;;5.40;68.00;;;;;;4946785;28;114199;-82
2023/12/12 07:34:13;;;;;;;4.10;1.80;;;5.40;67.90;;;;;;4946057;28;114591;-82
2023/12/12 07:36:41;;;;;;;5.43;1.92;;;5.40;67.90;;;;;;4946153;28;115227;-82
2023/12/12 07:39:09;;;;;;;5.03;1.80;;;5.40;67.80;;;;;;4928342;28;116379;-82
2023/12/12 07:41:37;;;;;;;4.32;1.80;;;5.40;67.80;;;;;;4945279;28;114715;-83
2023/12/12 07:44:04;;;;;;;4.25;1.80;;;5.40;67.80;;;;;;4946469;28;114216;-82
2023/12/12 07:46:37;;;;;;;6.30;2.08;;;5.40;67.70;;;;;;4944654;28;115139;-82
2023/12/12 07:49:08;;;;;;;4.53;1.93;;;5.40;67.70;;;;;;4944732;28;116530;-82
2023/12/12 07:51:37;;;;;;;5.10;2.03;;;5.40;67.60;;;;;;4945619;28;114559;-82
2023/12/12 07:54:06;;;;;;;4.65;1.70;;;5.40;67.60;;;;;;4947572;28;114356;-83
2023/12/12 07:56:33;;;;;;;7.25;2.22;;;5.40;67.50;;;;;;4955157;28;115084;-82
2023/12/12 07:59:06;;;;;;;6.25;2.20;;;5.40;67.40;;;;;;4945385;28;114477;-82
2023/12/12 08:01:36;;;;;;;7.40;1.92;;;5.40;67.30;;;;;;4950328;28;114415;-82
2023/12/12 08:04:05;;;;;;;4.45;2.05;;;5.50;67.30;;;;;;4934594;28;114362;-82
2023/12/12 08:06:32;;;;;;;4.70;2.30;;;5.50;67.30;;;;;;4948562;28;115103;-81
2023/12/12 08:09:03;;;;;;;4.90;2.20;;;5.50;67.20;;;;;;4951125;28;114813;-83
2023/12/12 08:11:31;;;;;;;8.57;2.80;;;5.50;67.10;;;;;;4949214;28;114342;-82
2023/12/12 08:14:00;;;;;;;6.60;2.42;;;5.50;67.10;;;;;;4932848;28;114872;-82
2023/12/12 08:16:27;;;;;;;4.93;2.38;;;5.50;67.00;;;;;;4931658;28;118036;-83
2023/12/12 08:18:55;;;;;;;7.00;2.67;;;5.60;67.00;;;;;;4947489;28;116154;-81
2023/12/12 08:21:24;;;;;;;7.43;2.83;;;5.60;66.90;;;;;;4949517;28;114627;-82
2023/12/12 08:23:51;;;;;;;6.35;2.42;;;5.50;66.90;;;;;;4917116;28;114449;-81
2023/12/12 08:26:22;;;;;;;6.00;2.42;;;5.60;66.90;;;;;;4947437;28;115200;-83
2023/12/12 08:28:50;;;;;;;6.53;2.28;;;5.60;66.80;;;;;;4947546;28;118381;-82
2023/12/12 08:31:17;;;;;;;5.78;2.60;;;5.60;66.80;;;;;;4931842;28;114360;-82
2023/12/12 08:33:45;;;;;;;5.93;2.63;;;5.60;66.80;;;;;;4948096;28;114546;-81
2023/12/12 08:36:15;;;;;;;5.32;1.83;;;5.70;66.70;;;;;;4947432;28;115309;-82
2023/12/12 08:38:47;;;;;;;4.90;2.30;;;5.70;66.60;;;;;;4931685;28;114668;-81
2023/12/12 08:41:15;;;;;;;4.65;2.30;;;5.60;66.60;;;;;;4948835;28;114273;-82
2023/12/12 08:43:42;;;;;;;5.03;2.70;;;5.70;66.60;;;;;;4954916;28;114501;-82
2023/12/12 08:46:09;;;;;;;7.88;2.85;;;5.70;66.60;;;;;;4949808;28;114256;-82
2023/12/12 08:48:37;;;;;;;4.72;2.40;;;5.70;66.60;;;;;;4931822;28;117921;-81
2023/12/12 08:51:05;;;;;;;5.85;2.35;;;5.70;66.50;;;;;;4948477;28;114430;-81
2023/12/12 08:53:33;;;;;;;6.10;3.13;;;5.80;66.50;;;;;;4948633;28;114483;-81
2023/12/12 08:56:00;;;;;;;6.45;2.20;;;5.70;66.50;;;;;;4946951;28;116350;-81
2023/12/12 08:58:29;;;;;;;5.85;2.35;;;5.90;66.50;;;;;;4948948;28;114690;-80
2023/12/12 09:00:59;;;;;;;5.93;2.70;;;5.90;66.40;;;;;;4949365;28;114392;-81
2023/12/12 09:03:28;;;;;;;6.38;2.58;;;6.00;66.30;;;;;;4948420;28;114734;-82
2023/12/12 09:05:55;;;;;;;6.93;2.38;;;6.10;66.40;;;;;;4946387;28;118128;-81
2023/12/12 09:08:26;;;;;;;4.70;2.03;;;6.20;66.30;;;;;;4947427;28;114648;-82
2023/12/12 09:10:53;;;;;;;5.68;2.20;;;6.30;66.40;;;;;;4948314;28;114363;-82
2023/12/12 09:13:22;;;;;;;5.88;2.55;;;6.30;66.20;;;;;;4948166;28;114576;-82
2023/12/12 09:15:49;;;;;;;4.50;2.22;;;6.40;66.30;;;;;;4930819;28;115139;-82
2023/12/12 09:18:16;;;;;;;2.90;1.60;;;6.50;66.20;;;;;;4930749;28;114635;-82
2023/12/12 09:20:48;;;;;;;8.95;4.05;;;6.60;66.20;;;;;;4931452;28;114437;-82
2023/12/12 09:23:16;;;;;;;6.05;2.30;;;6.50;66.10;;;;;;4931707;28;114535;-82
2023/12/12 09:25:46;;;;;;;7.43;2.20;;;6.50;66.20;;;;;;4948011;28;115102;-82
2023/12/12 09:28:14;;;;;;;6.60;2.03;;;6.50;66.20;;;;;;4947381;28;116779;-83
2023/12/12 09:30:42;;;;;;;5.95;2.10;;;6.50;66.10;;;;;;4931836;28;114490;-82
2023/12/12 09:33:09;;;;;;;4.65;2.33;;;6.50;66.10;;;;;;4947365;28;114650;-81
2023/12/12 09:35:37;;;;;;;4.32;2.13;;;6.50;66.20;;;;;;4947387;28;115689;-81
2023/12/12 09:38:05;;;;;;;4.38;2.03;;;6.50;66.20;;;;;;4948740;28;114566;-83
2023/12/12 09:40:34;;;;;;;3.85;1.95;;;6.50;66.20;;;;;;4948444;28;114447;-82
2023/12/12 09:43:03;;;;;;;4.50;2.08;;;6.50;66.20;;;;;;4933114;28;114658;-81
2023/12/12 09:45:31;;;;;;;4.53;1.83;;;6.50;66.20;;;;;;4948662;28;115760;-82
2023/12/12 09:47:59;;;;;;;8.00;2.45;;;6.50;66.20;;;;;;4946913;28;115734;-82
2023/12/12 09:50:27;;;;;;;7.10;2.30;;;6.50;66.30;;;;;;4947952;28;114317;-82
2023/12/12 09:52:57;;;;;;;5.18;2.10;;;6.50;66.30;;;;;;4952945;28;114930;-83
2023/12/12 09:55:25;;;;;;;5.05;2.13;;;6.50;66.30;;;;;;4954441;28;115207;-83
2023/12/12 09:57:52;;;;;;;3.30;1.90;;;6.50;66.30;;;;;;4946812;28;114790;-82
2023/12/12 10:00:21;;;;;;;3.88;1.90;;;6.50;66.20;;;;;;4930993;28;114403;-82
2023/12/12 10:02:50;;;;;;;5.53;2.20;;;6.60;66.30;;;;;;4947451;28;114486;-82
2023/12/12 10:05:18;;;;;;;6.38;1.90;;;6.60;66.20;;;;;;4913428;28;118311;-82
2023/12/12 10:07:45;;;;;;;4.47;2.10;;;6.60;66.10;;;;;;4945398;28;114899;-82
2023/12/12 10:10:24;;;;;;;5.00;2.10;;;6.70;66.20;;;;;;4946533;28;114258;-82
2023/12/12 10:12:54;;;;;;;4.72;2.50;;;6.70;66.20;;;;;;4931477;28;114375;-82
2023/12/12 10:15:23;;;;;;;3.88;1.65;;;6.70;66.10;;;;;;4946679;28;115645;-82
2023/12/12 10:17:58;;;;;;;6.60;2.20;;;6.80;66.00;;;;;;4946045;28;114611;-82
2023/12/12 10:20:29;;;;;;;;;;;7.00;65.80;;;;;;4946859;28;114206;-82
2023/12/12 10:22:58;;;;;;;5.45;2.05;;;6.90;66.00;;;;;;4946909;28;114369;-80
2023/12/12 10:25:35;;;;;;;4.78;1.80;;;7.00;65.70;;;;;;4947109;28;115381;-82
2023/12/12 10:28:03;;;;;;;3.97;1.80;;;7.00;65.50;;;;;;4953425;28;114730;-81
2023/12/12 10:30:30;;;;;;;4.05;2.30;;;7.00;65.50;;;;;;4900281;28;114726;-83
2023/12/12 10:32:58;;;;;;;6.05;2.20;;;7.10;65.40;;;;;;4946676;28;114377;-82
2023/12/12 10:35:28;;;;;;;7.05;2.20;;;7.10;65.30;;;;;;4929293;28;115256;-82
2023/12/12 10:37:55;;;;;;;6.30;2.17;;;7.10;65.30;;;;;;4945884;28;114747;-82
2023/12/12 10:40:28;;;;;;;4.88;2.58;;;7.20;65.20;;;;;;4948189;28;114104;-81
2023/12/12 10:42:57;;;;;;;5.85;2.20;;;7.20;65.10;;;;;;4947898;28;114562;-82
2023/12/12 10:45:24;;;;;;;5.05;2.22;;;7.20;65.20;;;;;;4947193;28;117017;-81
2023/12/12 10:47:53;;;;;;;7.40;2.15;;;7.30;65.00;;;;;;4945830;28;115201;-82
2023/12/12 10:50:26;;;;;;;5.63;2.42;;;7.30;65.00;;;;;;4932088;28;114372;-82
2023/12/12 10:52:58;;;;;;;5.85;2.40;;;7.40;64.90;;;;;;4947203;28;114329;-82
2023/12/12 10:55:25;;;;;;;5.15;2.45;;;7.40;64.60;;;;;;4929623;28;115753;-82
2023/12/12 10:57:54;;;;;;;6.45;2.50;;;7.40;64.50;;;;;;4929300;28;117598;-82
2023/12/12 11:00:24;;;;;;;5.90;2.42;;;7.30;64.40;;;;;;4946668;28;114338;-82
2023/12/12 11:02:51;;;;;;;3.80;2.00;;;7.30;64.40;;;;;;4946153;28;114340;-82
2023/12/12 11:05:18;;;;;;;4.75;1.90;;;7.30;64.50;;;;;;4912775;28;118735;-81
2023/12/12 11:07:50;;;;;;;5.82;2.40;;;7.20;64.40;;;;;;4945934;28;114660;-81
2023/12/12 11:10:18;;;;;;;4.68;2.10;;;7.30;64.50;;;;;;4946031;28;114509;-83
2023/12/12 11:12:53;;;;;;;4.55;2.10;;;7.30;64.40;;;;;;4930667;28;114409;-82
2023/12/12 11:15:20;;;;;;;8.68;3.03;;;7.20;64.40;;;;;;4946661;28;115103;-83
2023/12/12 11:17:50;;;;;;;6.50;2.35;;;7.20;64.50;;;;;;4945581;28;115234;-83
2023/12/12 11:20:18;;;;;;;5.55;2.20;;;7.30;64.40;;;;;;4930924;28;114504;-81
2023/12/12 11:22:55;;;;;;;5.55;2.42;;;7.20;64.40;;;;;;4929985;28;114522;-81
2023/12/12 11:25:23;;;;;;;5.35;2.47;;;7.30;64.30;;;;;;4945112;28;115667;-82
2023/12/12 11:27:52;;;;;;;5.82;1.90;;;7.20;64.30;;;;;;4944731;28;115459;-82
2023/12/12 11:30:30;;;;;;;7.38;2.38;;;7.30;64.10;;;;;;4929819;28;114414;-82
2023/12/12 11:32:58;;;;;;;4.07;1.90;;;7.30;64.10;;;;;;4947243;28;114578;-82
2023/12/12 11:35:31;;;;;;;6.10;2.28;;;7.20;64.10;;;;;;4914282;28;118877;-81
2023/12/12 11:38:31;;;;;;;5.57;2.15;;;7.20;64.00;;;;;;4945351;28;114405;-82
2023/12/12 11:41:09;;;;;;;5.95;2.47;;;7.20;63.90;;;;;;4945204;28;114309;-81
2023/12/12 11:43:39;;;;;;;4.05;1.90;;;7.20;64.10;;;;;;4946367;28;114594;-83
2023/12/12 11:46:20;;;;;;;5.50;2.50;;;7.20;64.20;;;;;;4929055;28;115034;-82
2023/12/12 11:48:48;;;;;;;4.47;2.10;;;7.20;64.00;;;;;;4945972;28;115153;-82
2023/12/12 11:51:53;;;;;;;6.63;2.40;;;7.20;64.20;;;;;;4956938;28;114510;-82
2023/12/12 11:54:23;;;;;;;6.32;2.38;;;7.20;64.20;;;;;;4941394;28;114297;-82
2023/12/12 11:56:58;;;;;;;4.50;2.10;;;7.20;64.30;;;;;;4946739;28;115956;-81
2023/12/12 11:59:27;;;;;;;7.38;2.35;;;7.20;64.20;;;;;;4944735;28;115853;-82
2023/12/12 12:01:55;;;;;;;5.38;2.95;;;7.20;64.20;;;;;;4929305;28;114353;-81
2023/12/12 12:04:24;;;;;;;6.70;2.30;;;7.20;64.20;;;;;;4929005;28;114404;-81
2023/12/12 12:06:57;;;;;;;7.65;2.88;;;7.30;64.20;;;;;;4945459;28;116757;-82
2023/12/12 12:09:34;;;;;;;7.47;2.55;;;7.30;64.20;;;;;;4945900;28;114848;-82
2023/12/12 12:12:08;;;;;;;5.00;2.30;;;7.40;64.20;;;;;;4934685;28;114769;-82
2023/12/12 12:14:35;;;;;;;6.55;2.80;;;7.40;64.10;;;;;;4921072;28;114381;-80
2023/12/12 12:17:05;;;;;;;7.93;2.80;;;7.40;64.10;;;;;;4928593;28;118611;-82
2023/12/12 12:19:38;;;;;;;6.85;2.45;;;7.40;64.00;;;;;;4944579;28;117016;-81
2023/12/12 12:22:12;;;;;;;6.25;2.60;;;7.40;64.00;;;;;;4947881;28;114455;-81
2023/12/12 12:24:46;;;;;;;5.32;2.00;;;7.40;63.90;;;;;;4947191;28;114236;-81
2023/12/12 12:27:14;;;;;;;5.95;2.17;;;7.40;63.90;;;;;;4928479;28;118446;-82
2023/12/12 12:29:42;;;;;;;7.35;2.42;;;7.40;63.80;;;;;;4945510;28;114818;-83
2023/12/12 12:32:16;;;;;;;7.03;2.53;;;7.40;63.80;;;;;;4945585;28;114167;-81
2023/12/12 12:34:45;;;;;;;6.50;2.70;;;7.40;63.80;;;;;;4929407;28;114459;-81
2023/12/12 12:37:32;;;;;;;6.30;2.55;;;7.40;63.90;;;;;;4943817;28;117672;-81
2023/12/12 12:40:04;;;;;;;7.60;2.97;;;7.50;63.70;;;;;;4943517;28;114741;-81
2023/12/12 12:42:38;;;;;;;7.80;2.72;;;7.40;63.70;;;;;;4945298;28;114290;-84
2023/12/12 12:45:16;;;;;;;6.88;2.38;;;7.40;63.60;;;;;;4949877;28;114378;-84
2023/12/12 12:47:43;;;;;;;6.88;2.90;;;7.30;63.70;;;;;;4947066;28;116808;-83
2023/12/12 12:50:12;;;;;;;5.45;3.00;;;7.30;63.80;;;;;;4949176;28;115054;-82
2023/12/12 12:52:39;;;;;;;8.48;3.00;;;7.30;63.90;;;;;;4951624;28;114200;-83
2023/12/12 12:55:30;;;;;;;8.65;2.75;;;7.30;63.90;;;;;;4950588;28;114304;-82
2023/12/12 12:57:59;;;;;;;8.55;3.28;;;7.40;63.90;;;;;;4937131;28;115772;-81